createdAt,value
2023-02-01T00:00:31.517Z,4.59
2023-02-01T00:01:32.553Z,4.64
2023-02-01T00:02:32.613Z,4.62
2023-02-01T00:03:32.731Z,4.56
2023-02-01T00:04:31.805Z,4.56
2023-02-01T00:05:31.923Z,4.54
2023-02-01T00:06:32.744Z,4.51
2023-02-01T00:07:32.197Z,4.46
2023-02-01T00:08:32.790Z,4.43
2023-02-01T00:09:32.828Z,4.39
2023-02-01T00:10:31.441Z,4.38
2023-02-01T00:11:31.424Z,4.38
2023-02-01T00:12:31.434Z,4.38
2023-02-01T00:13:31.552Z,4.39
2023-02-01T00:14:31.557Z,4.43
2023-02-01T00:15:31.679Z,4.44
2023-02-01T00:16:31.664Z,4.47
2023-02-01T00:17:31.788Z,4.44
2023-02-01T00:18:31.781Z,4.46
2023-02-01T00:19:31.896Z,4.50
2023-02-01T00:20:33.134Z,4.50
2023-02-01T00:21:32.013Z,4.51
2023-02-01T00:22:31.840Z,4.50
2023-02-01T00:23:31.946Z,4.47
2023-02-01T00:24:32.133Z,4.46
2023-02-01T00:25:31.423Z,4.46
2023-02-01T00:26:32.335Z,4.51
2023-02-01T00:27:32.364Z,4.47
2023-02-01T00:28:32.356Z,4.49
2023-02-01T00:29:32.461Z,4.46
2023-02-01T00:30:31.210Z,4.49
2023-02-01T00:31:32.746Z,4.46
2023-02-01T00:32:32.596Z,4.50
2023-02-01T00:33:32.705Z,4.50
2023-02-01T00:34:31.089Z,4.49
2023-02-01T00:35:31.821Z,4.53
2023-02-01T00:36:32.811Z,4.53
2023-02-01T00:37:31.871Z,4.53
2023-02-01T00:38:32.934Z,4.53
2023-02-01T00:39:31.012Z,4.54
2023-02-01T00:40:31.012Z,4.54
2023-02-01T00:41:31.125Z,4.51
2023-02-01T00:42:31.128Z,4.53
2023-02-01T00:43:31.224Z,4.50
2023-02-01T00:44:31.231Z,4.50
2023-02-01T00:45:31.053Z,4.49
2023-02-01T00:46:31.427Z,4.51
2023-02-01T00:47:31.453Z,4.53
2023-02-01T00:48:31.469Z,4.56
2023-02-01T00:49:31.601Z,4.54
2023-02-01T00:50:31.071Z,4.56
2023-02-01T00:51:31.716Z,4.54
2023-02-01T00:52:31.708Z,4.51
2023-02-01T00:53:31.078Z,4.50
2023-02-01T00:54:31.810Z,4.46
2023-02-01T00:55:31.809Z,4.49
2023-02-01T00:56:31.570Z,4.47
2023-02-01T00:57:31.308Z,4.44
2023-02-01T00:58:31.643Z,4.43
2023-02-01T00:59:30.766Z,4.46
2023-02-01T01:00:31.745Z,4.50
2023-02-01T01:01:31.055Z,4.49
2023-02-01T01:02:30.955Z,4.47
2023-02-01T01:03:31.819Z,4.46
2023-02-01T01:04:30.700Z,4.43
2023-02-01T01:05:31.498Z,4.42
2023-02-01T01:06:31.434Z,4.39
2023-02-01T01:07:31.083Z,4.38
2023-02-01T01:08:31.527Z,4.34
2023-02-01T01:09:32.029Z,4.35
2023-02-01T01:10:30.685Z,4.42
2023-02-01T01:11:30.802Z,4.39
2023-02-01T01:12:30.796Z,4.38
2023-02-01T01:13:30.912Z,4.36
2023-02-01T01:14:30.933Z,4.35
2023-02-01T01:15:31.037Z,4.34
2023-02-01T01:16:31.124Z,4.31
2023-02-01T01:17:31.138Z,4.31
2023-02-01T01:18:31.056Z,4.32
2023-02-01T01:19:30.953Z,4.34
2023-02-01T01:20:31.156Z,4.36
2023-02-01T01:21:30.502Z,4.34
2023-02-01T01:22:30.504Z,4.34
2023-02-01T01:23:30.682Z,4.35
2023-02-01T01:24:31.492Z,4.38
2023-02-01T01:25:30.474Z,4.38
2023-02-01T01:26:30.550Z,4.44
2023-02-01T01:27:30.583Z,4.47
2023-02-01T01:28:30.592Z,4.49
2023-02-01T01:29:30.415Z,4.49
2023-02-01T01:30:30.488Z,4.51
2023-02-01T01:31:30.558Z,4.53
2023-02-01T01:32:30.358Z,4.53
2023-02-01T01:33:30.320Z,4.50
2023-02-01T01:34:30.425Z,4.51
2023-02-01T01:35:30.437Z,4.51
2023-02-01T01:36:30.450Z,4.54
2023-02-01T01:37:30.347Z,4.51
2023-02-01T01:38:30.355Z,4.59
2023-02-01T01:39:30.457Z,4.57
2023-02-01T01:40:30.463Z,4.62
2023-02-01T01:41:30.598Z,4.67
2023-02-01T01:42:30.584Z,4.64
2023-02-01T01:43:30.701Z,4.68
2023-02-01T01:44:30.693Z,4.71
2023-02-01T01:45:30.821Z,4.71
2023-02-01T01:46:30.848Z,4.72
2023-02-01T01:47:30.911Z,4.72
2023-02-01T01:48:30.926Z,4.74
2023-02-01T01:49:31.034Z,4.71
2023-02-01T01:50:31.044Z,4.69
2023-02-01T01:51:31.040Z,4.68
2023-02-01T01:52:31.050Z,4.71
2023-02-01T01:53:31.262Z,4.71
2023-02-01T01:54:31.273Z,4.69
2023-02-01T01:55:31.380Z,4.71
2023-02-01T01:56:31.393Z,4.68
2023-02-01T01:57:30.687Z,4.71
2023-02-01T01:58:31.503Z,4.68
2023-02-01T01:59:31.686Z,4.68
2023-02-01T02:00:31.655Z,4.69
2023-02-01T02:01:30.986Z,4.68
2023-02-01T02:02:30.987Z,4.72
2023-02-01T02:03:30.111Z,4.72
2023-02-01T02:04:31.040Z,4.71
2023-02-01T02:05:29.919Z,4.72
2023-02-01T02:06:29.906Z,4.68
2023-02-01T02:07:30.025Z,4.71
2023-02-01T02:08:30.032Z,4.72
2023-02-01T02:09:30.142Z,4.72
2023-02-01T02:10:30.153Z,4.74
2023-02-01T02:11:30.250Z,4.72
2023-02-01T02:12:30.270Z,4.74
2023-02-01T02:13:30.382Z,4.71
2023-02-01T02:14:30.383Z,4.69
2023-02-01T02:15:30.480Z,4.72
2023-02-01T02:16:30.558Z,4.75
2023-02-01T02:17:30.611Z,4.75
2023-02-01T02:18:29.987Z,4.74
2023-02-01T02:19:30.715Z,4.75
2023-02-01T02:20:30.716Z,4.80
2023-02-01T02:21:30.827Z,4.79
2023-02-01T02:22:29.822Z,4.79
2023-02-01T02:23:30.727Z,4.77
2023-02-01T02:24:30.029Z,4.79
2023-02-01T02:25:30.804Z,4.75
2023-02-01T02:26:29.631Z,4.77
2023-02-01T02:27:30.892Z,4.77
2023-02-01T02:28:30.923Z,4.75
2023-02-01T02:29:30.964Z,4.79
2023-02-01T02:30:29.671Z,4.79
2023-02-01T02:31:30.476Z,4.75
2023-02-01T02:32:29.566Z,4.79
2023-02-01T02:33:31.096Z,4.83
2023-02-01T02:34:31.021Z,4.83
2023-02-01T02:35:29.591Z,4.83
2023-02-01T02:36:29.595Z,4.86
2023-02-01T02:37:29.700Z,4.83
2023-02-01T02:38:29.718Z,4.84
2023-02-01T02:39:29.506Z,4.83
2023-02-01T02:40:29.827Z,4.88
2023-02-01T02:41:29.968Z,4.84
2023-02-01T02:42:29.956Z,4.86
2023-02-01T02:43:30.044Z,4.88
2023-02-01T02:44:30.054Z,4.88
2023-02-01T02:45:30.245Z,4.86
2023-02-01T02:46:30.184Z,4.87
2023-02-01T02:47:30.288Z,4.86
2023-02-01T02:48:29.464Z,4.88
2023-02-01T02:49:29.677Z,4.86
2023-02-01T02:50:30.008Z,4.87
2023-02-01T02:51:30.307Z,4.86
2023-02-01T02:52:30.612Z,4.84
2023-02-01T02:53:30.075Z,4.84
2023-02-01T02:54:30.723Z,4.86
2023-02-01T02:55:29.626Z,4.87
2023-02-01T02:56:29.736Z,4.90
2023-02-01T02:57:30.863Z,4.88
2023-02-01T02:58:30.966Z,4.90
2023-02-01T02:59:29.785Z,4.93
2023-02-01T03:00:31.078Z,4.90
2023-02-01T03:01:31.083Z,4.93
2023-02-01T03:02:29.213Z,4.93
2023-02-01T03:03:29.251Z,4.93
2023-02-01T03:04:29.266Z,4.96
2023-02-01T03:05:29.129Z,4.94
2023-02-01T03:06:29.483Z,4.96
2023-02-01T03:07:29.483Z,4.94
2023-02-01T03:08:29.123Z,4.94
2023-02-01T03:09:29.600Z,4.93
2023-02-01T03:10:29.709Z,4.90
2023-02-01T03:11:29.712Z,4.88
2023-02-01T03:12:29.781Z,4.87
2023-02-01T03:13:29.835Z,4.87
2023-02-01T03:14:29.891Z,4.88
2023-02-01T03:15:29.944Z,4.91
2023-02-01T03:16:30.124Z,4.93
2023-02-01T03:17:30.055Z,4.86
2023-02-01T03:18:30.062Z,4.87
2023-02-01T03:19:30.174Z,4.87
2023-02-01T03:20:29.976Z,4.84
2023-02-01T03:21:29.906Z,4.84
2023-02-01T03:22:29.929Z,4.87
2023-02-01T03:23:29.958Z,4.93
2023-02-01T03:24:29.082Z,4.94
2023-02-01T03:25:30.019Z,4.90
2023-02-01T03:26:30.117Z,4.88
2023-02-01T03:27:28.858Z,4.88
2023-02-01T03:28:28.874Z,4.91
2023-02-01T03:29:30.132Z,4.90
2023-02-01T03:30:28.807Z,4.90
2023-02-01T03:31:28.842Z,4.90
2023-02-01T03:32:28.769Z,4.91
2023-02-01T03:33:28.929Z,4.93
2023-02-01T03:34:29.046Z,4.91
2023-02-01T03:35:29.049Z,4.90
2023-02-01T03:36:29.527Z,4.90
2023-02-01T03:37:29.156Z,4.88
2023-02-01T03:38:29.276Z,4.87
2023-02-01T03:39:29.287Z,4.88
2023-02-01T03:40:29.388Z,4.90
2023-02-01T03:41:29.387Z,4.90
2023-02-01T03:42:29.468Z,4.90
2023-02-01T03:43:28.693Z,4.91
2023-02-01T03:44:28.696Z,4.88
2023-02-01T03:45:28.815Z,4.90
2023-02-01T03:46:28.816Z,4.88
2023-02-01T03:47:28.616Z,4.88
2023-02-01T03:48:28.617Z,4.93
2023-02-01T03:49:28.725Z,4.96
2023-02-01T03:50:28.736Z,4.99
2023-02-01T03:51:28.538Z,4.96
2023-02-01T03:52:28.550Z,4.96
2023-02-01T03:53:28.656Z,4.94
2023-02-01T03:54:28.657Z,4.93
2023-02-01T03:55:28.489Z,4.91
2023-02-01T03:56:28.755Z,4.94
2023-02-01T03:57:28.889Z,4.93
2023-02-01T03:58:28.891Z,5.01
2023-02-01T03:59:28.489Z,4.97
2023-02-01T04:00:28.496Z,4.94
2023-02-01T04:01:28.620Z,4.93
2023-02-01T04:02:28.654Z,4.96
2023-02-01T04:03:28.612Z,4.93
2023-02-01T04:04:28.724Z,4.93
2023-02-01T04:05:28.826Z,4.94
2023-02-01T04:06:28.833Z,4.93
2023-02-01T04:07:28.946Z,4.93
2023-02-01T04:08:28.974Z,4.96
2023-02-01T04:09:28.951Z,4.94
2023-02-01T04:10:29.078Z,4.93
2023-02-01T04:11:29.073Z,4.93
2023-02-01T04:12:29.187Z,4.91
2023-02-01T04:13:29.193Z,4.91
2023-02-01T04:14:29.400Z,4.94
2023-02-01T04:15:29.304Z,4.96
2023-02-01T04:16:28.721Z,4.94
2023-02-01T04:17:28.193Z,4.91
2023-02-01T04:18:28.507Z,4.90
2023-02-01T04:19:28.622Z,4.91
2023-02-01T04:20:28.825Z,4.87
2023-02-01T04:21:29.711Z,4.91
2023-02-01T04:22:29.246Z,4.90
2023-02-01T04:23:28.863Z,4.88
2023-02-01T04:24:29.184Z,4.91
2023-02-01T04:25:28.943Z,4.91
2023-02-01T04:26:29.085Z,4.93
2023-02-01T04:27:58.396Z,4.90
2023-02-01T04:28:58.356Z,4.87
2023-02-01T04:29:58.619Z,4.88
2023-02-01T04:30:58.365Z,4.87
2023-02-01T04:31:58.304Z,4.88
2023-02-01T04:32:58.303Z,4.86
2023-02-01T04:33:58.304Z,4.90
2023-02-01T04:34:58.363Z,4.90
2023-02-01T04:35:58.265Z,4.86
2023-02-01T04:36:58.244Z,4.90
2023-02-01T04:37:58.213Z,4.91
2023-02-01T04:38:58.243Z,4.91
2023-02-01T04:39:58.207Z,4.93
2023-02-01T04:40:58.197Z,4.94
2023-02-01T04:41:58.173Z,4.94
2023-02-01T04:42:58.162Z,4.93
2023-02-01T04:43:58.193Z,4.91
2023-02-01T04:44:58.136Z,4.93
2023-02-01T04:45:58.173Z,4.93
2023-02-01T04:46:58.114Z,4.90
2023-02-01T04:47:58.113Z,4.88
2023-02-01T04:48:58.123Z,4.90
2023-02-01T04:49:58.079Z,4.91
2023-02-01T04:50:58.054Z,4.88
2023-02-01T04:51:58.063Z,4.84
2023-02-01T04:52:58.027Z,4.83
2023-02-01T04:53:58.050Z,4.79
2023-02-01T04:54:59.262Z,4.80
2023-02-01T04:55:57.992Z,4.79
2023-02-01T04:56:57.971Z,4.77
2023-02-01T04:57:57.971Z,4.77
2023-02-01T04:58:57.978Z,4.74
2023-02-01T04:59:57.944Z,4.72
2023-02-01T05:00:58.054Z,4.74
2023-02-01T05:01:57.915Z,4.69
2023-02-01T05:02:57.927Z,4.72
2023-02-01T05:03:57.922Z,4.68
2023-02-01T05:04:57.951Z,4.69
2023-02-01T05:05:57.862Z,4.69
2023-02-01T05:06:57.850Z,4.67
2023-02-01T05:07:57.843Z,4.68
2023-02-01T05:08:57.856Z,4.69
2023-02-01T05:09:57.811Z,4.65
2023-02-01T05:10:57.802Z,4.65
2023-02-01T05:11:57.779Z,4.61
2023-02-01T05:12:57.775Z,4.61
2023-02-01T05:13:57.791Z,4.57
2023-02-01T05:14:57.752Z,4.54
2023-02-01T05:15:57.816Z,4.54
2023-02-01T05:16:57.721Z,4.53
2023-02-01T05:17:57.708Z,4.51
2023-02-01T05:18:57.711Z,4.53
2023-02-01T05:19:57.691Z,4.51
2023-02-01T05:20:57.681Z,4.49
2023-02-01T05:21:57.661Z,4.50
2023-02-01T05:22:57.639Z,4.49
2023-02-01T05:23:57.659Z,4.47
2023-02-01T05:24:57.607Z,4.46
2023-02-01T05:25:57.598Z,4.43
2023-02-01T05:26:57.599Z,4.36
2023-02-01T05:27:57.577Z,4.38
2023-02-01T05:28:57.598Z,4.35
2023-02-01T05:29:57.559Z,4.36
2023-02-01T05:30:57.568Z,4.32
2023-02-01T05:32:00.976Z,4.32
2023-02-01T05:32:58.515Z,4.32
2023-02-01T05:33:57.547Z,4.32
2023-02-01T05:34:57.487Z,4.28
2023-02-01T05:35:57.484Z,4.28
2023-02-01T05:36:57.886Z,4.28
2023-02-01T05:37:57.480Z,4.26
2023-02-01T05:38:57.456Z,4.26
2023-02-01T05:39:57.428Z,4.25
2023-02-01T05:40:57.417Z,4.21
2023-02-01T05:41:57.404Z,4.24
2023-02-01T05:42:57.390Z,4.25
2023-02-01T05:43:57.403Z,4.26
2023-02-01T05:44:57.361Z,4.26
2023-02-01T05:45:57.424Z,4.21
2023-02-01T05:46:57.337Z,4.20
2023-02-01T05:47:57.329Z,4.20
2023-02-01T05:48:57.350Z,4.17
2023-02-01T05:49:57.295Z,4.16
2023-02-01T05:50:57.274Z,4.13
2023-02-01T05:51:59.378Z,4.10
2023-02-01T05:52:57.260Z,4.11
2023-02-01T05:53:57.283Z,4.11
2023-02-01T05:55:00.377Z,4.07
2023-02-01T05:55:57.387Z,4.06
2023-02-01T05:56:57.233Z,4.06
2023-02-01T05:57:57.201Z,4.08
2023-02-01T05:58:57.492Z,4.06
2023-02-01T05:59:57.577Z,4.07
2023-02-01T06:00:57.152Z,4.08
2023-02-01T06:01:57.173Z,4.14
2023-02-01T06:02:57.214Z,4.13
2023-02-01T06:03:57.154Z,4.14
2023-02-01T06:04:57.098Z,4.17
2023-02-01T06:05:57.082Z,4.14
2023-02-01T06:06:57.077Z,4.14
2023-02-01T06:07:57.064Z,4.14
2023-02-01T06:08:57.080Z,4.13
2023-02-01T06:09:57.031Z,4.14
2023-02-01T06:10:57.022Z,4.17
2023-02-01T06:11:57.011Z,4.14
2023-02-01T06:12:57.000Z,4.16
2023-02-01T06:13:57.011Z,4.14
2023-02-01T06:14:56.961Z,4.20
2023-02-01T06:15:57.017Z,4.18
2023-02-01T06:16:56.950Z,4.25
2023-02-01T06:17:56.939Z,4.26
2023-02-01T06:18:56.945Z,4.28
2023-02-01T06:19:56.922Z,4.31
2023-02-01T06:20:56.901Z,4.29
2023-02-01T06:21:56.879Z,4.28
2023-02-01T06:22:56.861Z,4.31
2023-02-01T06:23:56.887Z,4.31
2023-02-01T06:24:56.843Z,4.29
2023-02-01T06:25:56.831Z,4.32
2023-02-01T06:26:56.810Z,4.31
2023-02-01T06:27:56.809Z,4.31
2023-02-01T06:28:56.818Z,4.32
2023-02-01T06:29:56.781Z,4.36
2023-02-01T06:30:56.822Z,4.39
2023-02-01T06:31:56.790Z,4.39
2023-02-01T06:32:56.731Z,4.38
2023-02-01T06:33:56.814Z,4.43
2023-02-01T06:34:56.656Z,4.39
2023-02-01T06:35:56.710Z,4.39
2023-02-01T06:36:56.685Z,4.46
2023-02-01T06:37:56.680Z,4.49
2023-02-01T06:38:56.692Z,4.53
2023-02-01T06:39:56.648Z,4.53
2023-02-01T06:40:56.636Z,4.51
2023-02-01T06:41:56.577Z,4.51
2023-02-01T06:42:56.619Z,4.50
2023-02-01T06:43:56.653Z,4.51
2023-02-01T06:44:56.536Z,4.49
2023-02-01T06:45:56.526Z,4.51
2023-02-01T06:46:56.533Z,4.51
2023-02-01T06:47:56.503Z,4.57
2023-02-01T06:48:56.498Z,4.57
2023-02-01T06:49:56.467Z,4.61
2023-02-01T06:50:56.456Z,4.57
2023-02-01T06:51:56.456Z,4.57
2023-02-01T06:52:56.428Z,4.64
2023-02-01T06:53:56.446Z,4.68
2023-02-01T06:54:56.415Z,4.69
2023-02-01T06:55:56.396Z,4.67
2023-02-01T06:56:56.367Z,4.72
2023-02-01T06:57:56.364Z,4.69
2023-02-01T06:58:56.375Z,4.71
2023-02-01T06:59:56.346Z,4.74
2023-02-01T07:00:56.368Z,4.72
2023-02-01T07:01:56.330Z,4.75
2023-02-01T07:02:56.285Z,4.72
2023-02-01T07:03:56.355Z,4.72
2023-02-01T07:04:56.264Z,4.74
2023-02-01T07:05:56.254Z,4.72
2023-02-01T07:06:56.255Z,4.71
2023-02-01T07:07:56.233Z,4.71
2023-02-01T07:08:56.255Z,4.75
2023-02-01T07:09:56.204Z,4.77
2023-02-01T07:10:56.198Z,4.80
2023-02-01T07:11:56.181Z,4.84
2023-02-01T07:12:56.163Z,4.87
2023-02-01T07:13:56.211Z,4.86
2023-02-01T07:14:56.142Z,4.87
2023-02-01T07:15:56.145Z,4.84
2023-02-01T07:16:56.120Z,4.80
2023-02-01T07:17:56.105Z,4.80
2023-02-01T07:18:56.124Z,4.80
2023-02-01T07:19:56.084Z,4.83
2023-02-01T07:20:56.073Z,4.83
2023-02-01T07:21:56.055Z,4.80
2023-02-01T07:22:56.051Z,4.83
2023-02-01T07:23:56.076Z,4.86
2023-02-01T07:24:56.022Z,4.80
2023-02-01T07:25:56.018Z,4.83
2023-02-01T07:26:56.042Z,4.83
2023-02-01T07:27:55.990Z,4.79
2023-02-01T07:28:55.996Z,4.79
2023-02-01T07:29:55.964Z,4.75
2023-02-01T07:30:56.028Z,4.77
2023-02-01T07:31:55.929Z,4.79
2023-02-01T07:32:55.964Z,4.75
2023-02-01T07:33:56.015Z,4.77
2023-02-01T07:34:55.882Z,4.77
2023-02-01T07:35:55.872Z,4.83
2023-02-01T07:36:55.870Z,4.79
2023-02-01T07:37:55.857Z,4.84
2023-02-01T07:38:56.954Z,4.80
2023-02-01T07:39:55.830Z,4.80
2023-02-01T07:40:55.808Z,4.84
2023-02-01T07:41:55.800Z,4.80
2023-02-01T07:42:55.789Z,4.79
2023-02-01T07:43:55.799Z,4.80
2023-02-01T07:44:55.760Z,4.79
2023-02-01T07:45:55.770Z,4.77
2023-02-01T07:46:55.729Z,4.79
2023-02-01T07:47:55.719Z,4.75
2023-02-01T07:48:55.711Z,4.74
2023-02-01T07:49:55.729Z,4.72
2023-02-01T07:50:55.686Z,4.79
2023-02-01T07:51:55.658Z,4.74
2023-02-01T07:52:55.663Z,4.74
2023-02-01T07:53:56.483Z,4.75
2023-02-01T07:54:55.678Z,4.77
2023-02-01T07:55:55.619Z,4.84
2023-02-01T07:56:55.597Z,4.86
2023-02-01T07:57:55.590Z,4.87
2023-02-01T07:58:55.622Z,4.87
2023-02-01T07:59:55.597Z,4.94
2023-02-01T08:00:55.607Z,4.99
2023-02-01T08:01:55.570Z,4.97
2023-02-01T08:02:55.523Z,5.02
2023-02-01T08:03:55.520Z,5.02
2023-02-01T08:04:55.595Z,5.02
2023-02-01T08:05:55.486Z,5.01
2023-02-01T08:06:55.509Z,4.99
2023-02-01T08:07:55.471Z,5.04
2023-02-01T08:08:55.449Z,5.05
2023-02-01T08:09:55.479Z,5.08
2023-02-01T08:10:55.433Z,5.08
2023-02-01T08:11:55.418Z,5.08
2023-02-01T08:12:55.394Z,5.05
2023-02-01T08:13:55.402Z,5.09
2023-02-01T08:14:55.404Z,5.14
2023-02-01T08:15:55.371Z,5.15
2023-02-01T08:16:55.345Z,5.15
2023-02-01T08:17:55.346Z,5.19
2023-02-01T08:18:55.331Z,5.22
2023-02-01T08:19:55.347Z,5.20
2023-02-01T08:20:55.329Z,5.15
2023-02-01T08:21:55.275Z,5.15
2023-02-01T08:22:55.254Z,5.15
2023-02-01T08:23:55.293Z,5.17
2023-02-01T08:24:55.287Z,5.17
2023-02-01T08:25:55.224Z,5.12
2023-02-01T08:26:55.269Z,5.19
2023-02-01T08:27:55.213Z,5.14
2023-02-01T08:28:55.215Z,5.17
2023-02-01T08:29:55.206Z,5.19
2023-02-01T08:30:55.232Z,5.14
2023-02-01T08:31:55.299Z,5.17
2023-02-01T08:32:55.133Z,5.15
2023-02-01T08:33:55.137Z,5.22
2023-02-01T08:34:55.145Z,5.17
2023-02-01T08:35:55.126Z,5.23
2023-02-01T08:36:55.074Z,5.22
2023-02-01T08:37:55.082Z,5.24
2023-02-01T08:38:55.050Z,5.27
2023-02-01T08:39:55.086Z,5.29
2023-02-01T08:40:55.023Z,5.32
2023-02-01T08:41:55.028Z,5.32
2023-02-01T08:42:55.007Z,5.35
2023-02-01T08:43:55.005Z,5.41
2023-02-01T08:44:55.006Z,5.40
2023-02-01T08:45:56.844Z,5.41
2023-02-01T08:46:54.953Z,5.42
2023-02-01T08:47:54.931Z,5.45
2023-02-01T08:48:54.941Z,5.45
2023-02-01T08:49:54.938Z,5.42
2023-02-01T08:50:54.912Z,5.42
2023-02-01T08:51:56.595Z,5.42
2023-02-01T08:52:54.874Z,5.42
2023-02-01T08:53:54.888Z,5.40
2023-02-01T08:54:55.051Z,5.38
2023-02-01T08:55:54.845Z,5.37
2023-02-01T08:56:54.859Z,5.41
2023-02-01T08:57:54.859Z,5.38
2023-02-01T08:58:54.818Z,5.35
2023-02-01T08:59:54.936Z,5.37
2023-02-01T09:00:54.827Z,5.35
2023-02-01T09:01:54.782Z,5.33
2023-02-01T09:02:54.768Z,5.29
2023-02-01T09:03:54.823Z,5.26
2023-02-01T09:04:54.921Z,5.27
2023-02-01T09:05:54.957Z,5.27
2023-02-01T09:06:54.737Z,5.29
2023-02-01T09:07:54.676Z,5.27
2023-02-01T09:08:54.677Z,5.29
2023-02-01T09:09:55.073Z,5.27
2023-02-01T09:10:54.796Z,5.29
2023-02-01T09:11:54.792Z,5.27
2023-02-01T09:12:54.879Z,5.26
2023-02-01T09:13:54.589Z,5.29
2023-02-01T09:14:58.363Z,5.33
2023-02-01T09:15:55.221Z,5.33
2023-02-01T09:16:55.688Z,5.38
2023-02-01T09:17:54.554Z,5.33
2023-02-01T09:19:01.895Z,5.35
2023-02-01T09:19:55.642Z,5.35
2023-02-01T09:20:55.477Z,5.35
2023-02-01T09:21:54.518Z,5.29
2023-02-01T09:22:54.739Z,5.33
2023-02-01T09:23:54.467Z,5.35
2023-02-01T09:24:55.329Z,5.37
2023-02-01T09:25:54.538Z,5.35
2023-02-01T09:26:54.520Z,5.40
2023-02-01T09:27:54.507Z,5.35
2023-02-01T09:28:54.407Z,5.40
2023-02-01T09:29:54.411Z,5.40
2023-02-01T09:30:54.499Z,5.42
2023-02-01T09:32:03.247Z,5.44
2023-02-01T09:32:55.556Z,5.48
2023-02-01T09:33:55.991Z,5.49
2023-02-01T09:34:54.867Z,5.49
2023-02-01T09:35:54.462Z,5.52
2023-02-01T09:36:54.324Z,5.51
2023-02-01T09:37:54.311Z,5.56
2023-02-01T09:38:54.282Z,5.51
2023-02-01T09:39:54.284Z,5.51
2023-02-01T09:40:54.260Z,5.48
2023-02-01T09:41:54.409Z,5.48
2023-02-01T09:42:54.227Z,5.51
2023-02-01T09:43:54.203Z,5.51
2023-02-01T09:44:54.248Z,5.52
2023-02-01T09:45:54.249Z,5.51
2023-02-01T09:46:54.174Z,5.51
2023-02-01T09:47:54.174Z,5.49
2023-02-01T09:48:54.154Z,5.49
2023-02-01T09:49:54.154Z,5.52
2023-02-01T09:50:54.136Z,5.52
2023-02-01T09:51:54.125Z,5.49
2023-02-01T09:52:54.093Z,5.48
2023-02-01T09:53:54.084Z,5.48
2023-02-01T09:54:54.105Z,5.52
2023-02-01T09:55:54.060Z,5.58
2023-02-01T09:56:54.049Z,5.56
2023-02-01T09:57:54.029Z,5.59
2023-02-01T09:58:54.041Z,5.58
2023-02-01T09:59:54.032Z,5.55
2023-02-01T10:00:54.004Z,5.49
2023-02-01T10:01:54.000Z,5.51
2023-02-01T10:02:53.971Z,5.51
2023-02-01T10:03:54.010Z,5.51
2023-02-01T10:04:53.990Z,5.48
2023-02-01T10:05:53.940Z,5.45
2023-02-01T10:06:53.922Z,5.44
2023-02-01T10:07:53.897Z,5.41
2023-02-01T10:08:53.883Z,5.42
2023-02-01T10:09:53.897Z,5.41
2023-02-01T10:10:53.888Z,5.40
2023-02-01T10:11:53.871Z,5.44
2023-02-01T10:12:53.832Z,5.42
2023-02-01T10:13:53.821Z,5.42
2023-02-01T10:14:53.844Z,5.41
2023-02-01T10:15:53.893Z,5.37
2023-02-01T10:16:53.866Z,5.40
2023-02-01T10:17:53.771Z,5.40
2023-02-01T10:18:53.775Z,5.41
2023-02-01T10:19:53.769Z,5.38
2023-02-01T10:20:53.735Z,5.38
2023-02-01T10:21:53.726Z,5.37
2023-02-01T10:23:16.370Z,5.42
2023-02-01T10:23:55.265Z,5.41
2023-02-01T10:24:53.710Z,5.42
2023-02-01T10:25:53.693Z,5.45
2023-02-01T10:26:53.707Z,5.48
2023-02-01T10:27:53.639Z,5.48
2023-02-01T10:28:53.640Z,5.45
2023-02-01T10:29:53.652Z,5.48
2023-02-01T10:30:53.727Z,5.49
2023-02-01T10:31:53.791Z,5.45
2023-02-01T10:32:53.581Z,5.45
2023-02-01T10:33:53.562Z,5.48
2023-02-01T10:34:53.578Z,5.48
2023-02-01T10:35:53.540Z,5.48
2023-02-01T10:36:53.561Z,5.55
2023-02-01T10:37:53.498Z,5.67
2023-02-01T10:38:53.498Z,5.69
2023-02-01T10:39:53.528Z,5.69
2023-02-01T10:40:53.476Z,5.66
2023-02-01T10:41:53.458Z,5.70
2023-02-01T10:42:53.449Z,5.75
2023-02-01T10:43:53.597Z,5.83
2023-02-01T10:44:53.423Z,5.84
2023-02-01T10:45:53.499Z,5.87
2023-02-01T10:46:53.410Z,5.87
2023-02-01T10:47:53.489Z,5.95
2023-02-01T10:48:53.365Z,5.96
2023-02-01T10:49:53.361Z,6.01
2023-02-01T10:50:53.374Z,6.03
2023-02-01T10:51:53.340Z,6.08
2023-02-01T10:52:53.351Z,6.03
2023-02-01T10:53:53.306Z,6.02
2023-02-01T10:54:53.322Z,5.99
2023-02-01T10:55:53.304Z,5.92
2023-02-01T10:56:53.259Z,5.88
2023-02-01T10:57:53.311Z,5.85
2023-02-01T10:58:53.237Z,5.77
2023-02-01T10:59:53.231Z,5.75
2023-02-01T11:00:54.181Z,5.70
2023-02-01T11:01:59.516Z,5.66
2023-02-01T11:02:54.337Z,5.65
2023-02-01T11:03:53.164Z,5.65
2023-02-01T11:04:53.207Z,5.65
2023-02-01T11:05:53.165Z,5.60
2023-02-01T11:06:53.137Z,5.60
2023-02-01T11:07:53.111Z,5.59
2023-02-01T11:08:53.105Z,5.62
2023-02-01T11:09:53.076Z,5.59
2023-02-01T11:10:53.114Z,5.59
2023-02-01T11:11:53.100Z,5.59
2023-02-01T11:12:53.082Z,5.56
2023-02-01T11:13:53.034Z,5.52
2023-02-01T11:14:53.028Z,5.55
2023-02-01T11:15:53.807Z,5.56
2023-02-01T11:16:52.994Z,5.56
2023-02-01T11:17:53.016Z,5.60
2023-02-01T11:18:52.993Z,5.62
2023-02-01T11:19:52.957Z,5.62
2023-02-01T11:20:53.040Z,5.63
2023-02-01T11:21:52.934Z,5.59
2023-02-01T11:22:52.923Z,5.63
2023-02-01T11:23:52.927Z,5.66
2023-02-01T11:24:52.930Z,5.67
2023-02-01T11:25:53.174Z,5.67
2023-02-01T11:26:52.892Z,5.65
2023-02-01T11:27:55.807Z,5.67
2023-02-01T11:28:52.921Z,5.67
2023-02-01T11:29:52.819Z,5.69
2023-02-01T11:30:52.900Z,5.67
2023-02-01T11:31:52.978Z,5.67
2023-02-01T11:32:52.807Z,5.67
2023-02-01T11:33:52.791Z,5.70
2023-02-01T11:34:52.763Z,5.67
2023-02-01T11:35:52.800Z,5.69
2023-02-01T11:36:52.737Z,5.69
2023-02-01T11:37:52.728Z,5.66
2023-02-01T11:38:52.731Z,5.63
2023-02-01T11:39:52.731Z,5.66
2023-02-01T11:40:52.756Z,5.69
2023-02-01T11:41:52.672Z,5.67
2023-02-01T11:42:52.664Z,5.67
2023-02-01T11:43:52.662Z,5.67
2023-02-01T11:44:52.631Z,5.67
2023-02-01T11:45:52.664Z,5.66
2023-02-01T11:46:52.622Z,5.65
2023-02-01T11:47:52.584Z,5.62
2023-02-01T11:48:52.607Z,5.66
2023-02-01T11:49:52.583Z,5.63
2023-02-01T11:50:52.581Z,5.66
2023-02-01T11:51:52.539Z,5.60
2023-02-01T11:52:52.609Z,5.63
2023-02-01T11:53:52.632Z,5.63
2023-02-01T11:54:52.505Z,5.62
2023-02-01T11:55:52.789Z,5.65
2023-02-01T11:56:52.485Z,5.69
2023-02-01T11:57:52.459Z,5.69
2023-02-01T11:58:52.729Z,5.70
2023-02-01T11:59:56.717Z,5.70
2023-02-01T12:00:52.455Z,5.67
2023-02-01T12:01:52.483Z,5.67
2023-02-01T12:02:52.436Z,5.66
2023-02-01T12:03:52.381Z,5.63
2023-02-01T12:04:52.382Z,5.66
2023-02-01T12:05:52.378Z,5.63
2023-02-01T12:06:52.340Z,5.65
2023-02-01T12:07:52.423Z,5.62
2023-02-01T12:08:52.323Z,5.63
2023-02-01T12:09:52.310Z,5.65
2023-02-01T12:10:52.391Z,5.67
2023-02-01T12:11:52.286Z,5.66
2023-02-01T12:12:52.296Z,5.67
2023-02-01T12:13:52.954Z,5.69
2023-02-01T12:14:52.242Z,5.66
2023-02-01T12:15:52.283Z,5.69
2023-02-01T12:16:52.220Z,5.70
2023-02-01T12:17:52.225Z,5.70
2023-02-01T12:18:52.213Z,5.69
2023-02-01T12:19:52.199Z,5.70
2023-02-01T12:20:52.194Z,5.67
2023-02-01T12:21:52.157Z,5.69
2023-02-01T12:22:52.158Z,5.67
2023-02-01T12:23:52.239Z,5.70
2023-02-01T12:24:52.125Z,5.73
2023-02-01T12:25:52.136Z,5.63
2023-02-01T12:26:52.102Z,5.62
2023-02-01T12:27:52.202Z,5.58
2023-02-01T12:28:52.057Z,5.52
2023-02-01T12:29:52.116Z,5.49
2023-02-01T12:30:52.116Z,5.44
2023-02-01T12:31:52.131Z,5.41
2023-02-01T12:32:52.012Z,5.37
2023-02-01T12:33:51.993Z,5.41
2023-02-01T12:34:51.982Z,5.37
2023-02-01T12:35:52.018Z,5.38
2023-02-01T12:36:51.955Z,5.37
2023-02-01T12:37:51.984Z,5.32
2023-02-01T12:38:51.943Z,5.30
2023-02-01T12:39:51.923Z,5.29
2023-02-01T12:40:51.950Z,5.23
2023-02-01T12:41:51.884Z,5.23
2023-02-01T12:42:51.943Z,5.20
2023-02-01T12:43:51.885Z,5.17
2023-02-01T12:44:51.885Z,5.12
2023-02-01T12:45:51.924Z,5.09
2023-02-01T12:46:51.844Z,5.08
2023-02-01T12:47:51.876Z,5.02
2023-02-01T12:48:51.829Z,5.05
2023-02-01T12:49:51.816Z,5.01
2023-02-01T12:50:51.813Z,4.97
2023-02-01T12:51:51.752Z,4.96
2023-02-01T12:52:51.761Z,4.93
2023-02-01T12:53:51.732Z,4.93
2023-02-01T12:54:51.724Z,4.90
2023-02-01T12:55:52.037Z,4.94
2023-02-01T12:56:51.717Z,4.94
2023-02-01T12:57:51.690Z,4.90
2023-02-01T12:58:51.675Z,4.84
2023-02-01T12:59:51.644Z,4.83
2023-02-01T13:00:51.763Z,4.74
2023-02-01T13:01:51.638Z,4.72
2023-02-01T13:02:51.621Z,4.71
2023-02-01T13:03:51.601Z,4.71
2023-02-01T13:04:51.589Z,4.67
2023-02-01T13:05:51.591Z,4.65
2023-02-01T13:06:51.581Z,4.65
2023-02-01T13:07:51.639Z,4.65
2023-02-01T13:08:51.541Z,4.65
2023-02-01T13:09:51.522Z,4.65
2023-02-01T13:10:51.551Z,4.64
2023-02-01T13:11:51.493Z,4.61
2023-02-01T13:12:51.496Z,4.67
2023-02-01T13:13:51.613Z,4.65
2023-02-01T13:14:51.470Z,4.67
2023-02-01T13:15:51.572Z,4.65
2023-02-01T13:16:51.504Z,4.67
2023-02-01T13:17:51.470Z,4.65
2023-02-01T13:18:51.512Z,4.69